sensor_id;sensor_type;location;lat;lon;timestamp;P1;durP1;ratioP1;P2;durP2;ratioP2
15218;SDS011;15623;53.986;11.676;2023-06-26T02:32:10;11.07;;;10.13;;
15218;SDS011;15623;53.986;11.676;2023-06-26T04:02:16;12.02;;;10.95;;
15218;SDS011;15623;53.986;11.676;2023-06-26T04:04:48;11.98;;;11.27;;
15218;SDS011;15623;53.986;11.676;2023-06-26T04:12:42;11.13;;;10.32;;
15218;SDS011;15623;53.986;11.676;2023-06-26T04:15:54;11.35;;;10.55;;
15218;SDS011;15623;53.986;11.676;2023-06-26T04:26:26;10.73;;;10.07;;
15218;SDS011;15623;53.986;11.676;2023-06-26T04:29:13;10.25;;;9.35;;
15218;SDS011;15623;53.986;11.676;2023-06-26T04:35:22;9.70;;;9.10;;
15218;SDS011;15623;53.986;11.676;2023-06-26T04:38:07;9.75;;;9.15;;
15218;SDS011;15623;53.986;11.676;2023-06-26T04:40:36;9.35;;;8.73;;
15218;SDS011;15623;53.986;11.676;2023-06-26T04:55:18;8.55;;;7.93;;
15218;SDS011;15623;53.986;11.676;2023-06-26T04:57:52;8.50;;;8.00;;
15218;SDS011;15623;53.986;11.676;2023-06-26T05:00:24;8.27;;;7.78;;
15218;SDS011;15623;53.986;11.676;2023-06-26T05:02:54;8.25;;;7.47;;
15218;SDS011;15623;53.986;11.676;2023-06-26T05:05:27;7.63;;;7.22;;
15218;SDS011;15623;53.986;11.676;2023-06-26T05:08:12;7.70;;;7.18;;
15218;SDS011;15623;53.986;11.676;2023-06-26T05:10:44;7.60;;;7.03;;
15218;SDS011;15623;53.986;11.676;2023-06-26T05:13:14;7.32;;;6.82;;
15218;SDS011;15623;53.986;11.676;2023-06-26T05:15:47;7.30;;;6.80;;
15218;SDS011;15623;53.986;11.676;2023-06-26T05:18:16;7.55;;;6.95;;
15218;SDS011;15623;53.986;11.676;2023-06-26T05:23:16;6.88;;;6.47;;
15218;SDS011;15623;53.986;11.676;2023-06-26T05:25:46;6.78;;;6.28;;
15218;SDS011;15623;53.986;11.676;2023-06-26T05:28:23;6.90;;;6.50;;
15218;SDS011;15623;53.986;11.676;2023-06-26T05:33:26;6.70;;;6.30;;
15218;SDS011;15623;53.986;11.676;2023-06-26T05:36:01;6.63;;;6.13;;
15218;SDS011;15623;53.986;11.676;2023-06-26T05:38:31;7.40;;;6.80;;
15218;SDS011;15623;53.986;11.676;2023-06-26T05:41:03;7.13;;;6.55;;
15218;SDS011;15623;53.986;11.676;2023-06-26T05:43:31;6.78;;;6.38;;
15218;SDS011;15623;53.986;11.676;2023-06-26T05:46:01;6.70;;;6.30;;
15218;SDS011;15623;53.986;11.676;2023-06-26T05:48:30;6.60;;;6.20;;
15218;SDS011;15623;53.986;11.676;2023-06-26T05:50:58;6.82;;;6.20;;
15218;SDS011;15623;53.986;11.676;2023-06-26T05:53:28;6.30;;;5.70;;
15218;SDS011;15623;53.986;11.676;2023-06-26T05:55:58;6.68;;;6.18;;
15218;SDS011;15623;53.986;11.676;2023-06-26T06:01:00;6.18;;;5.82;;
15218;SDS011;15623;53.986;11.676;2023-06-26T06:03:34;5.80;;;5.40;;
15218;SDS011;15623;53.986;11.676;2023-06-26T06:08:52;6.25;;;5.90;;
15218;SDS011;15623;53.986;11.676;2023-06-26T06:11:19;6.15;;;5.75;;
15218;SDS011;15623;53.986;11.676;2023-06-26T06:13:48;5.90;;;5.60;;
15218;SDS011;15623;53.986;11.676;2023-06-26T06:16:18;5.97;;;5.57;;
15218;SDS011;15623;53.986;11.676;2023-06-26T06:18:45;6.15;;;5.72;;
15218;SDS011;15623;53.986;11.676;2023-06-26T06:21:20;5.40;;;5.00;;
15218;SDS011;15623;53.986;11.676;2023-06-26T06:23:58;5.30;;;5.00;;
15218;SDS011;15623;53.986;11.676;2023-06-26T06:26:27;5.85;;;5.45;;
15218;SDS011;15623;53.986;11.676;2023-06-26T06:28:55;5.72;;;5.32;;
15218;SDS011;15623;53.986;11.676;2023-06-26T06:31:29;4.90;;;4.60;;
15218;SDS011;15623;53.986;11.676;2023-06-26T06:34:04;5.80;;;5.32;;
15218;SDS011;15623;53.986;11.676;2023-06-26T06:39:06;5.90;;;5.43;;
15218;SDS011;15623;53.986;11.676;2023-06-26T06:41:35;6.03;;;5.50;;
15218;SDS011;15623;53.986;11.676;2023-06-26T06:44:03;5.82;;;5.32;;
15218;SDS011;15623;53.986;11.676;2023-06-26T06:46:45;5.72;;;5.32;;
15218;SDS011;15623;53.986;11.676;2023-06-26T06:49:14;5.55;;;5.20;;
15218;SDS011;15623;53.986;11.676;2023-06-26T06:51:42;6.43;;;4.97;;
15218;SDS011;15623;53.986;11.676;2023-06-26T06:56:56;5.20;;;4.90;;
15218;SDS011;15623;53.986;11.676;2023-06-26T06:59:26;5.25;;;4.82;;
15218;SDS011;15623;53.986;11.676;2023-06-26T07:01:59;5.43;;;5.00;;
15218;SDS011;15623;53.986;11.676;2023-06-26T07:04:26;5.13;;;4.65;;
15218;SDS011;15623;53.986;11.676;2023-06-26T07:06:56;5.15;;;4.80;;
15218;SDS011;15623;53.986;11.676;2023-06-26T07:09:24;5.80;;;5.40;;
15218;SDS011;15623;53.986;11.676;2023-06-26T07:12:05;5.00;;;4.70;;
15218;SDS011;15623;53.986;11.676;2023-06-26T07:14:33;4.95;;;4.65;;
15218;SDS011;15623;53.986;11.676;2023-06-26T07:17:04;4.95;;;4.65;;
15218;SDS011;15623;53.986;11.676;2023-06-26T07:22:03;5.03;;;4.68;;
15218;SDS011;15623;53.986;11.676;2023-06-26T07:24:56;5.40;;;5.10;;
15218;SDS011;15623;53.986;11.676;2023-06-26T07:27:24;5.30;;;5.00;;
15218;SDS011;15623;53.986;11.676;2023-06-26T07:29:51;4.80;;;4.45;;
15218;SDS011;15623;53.986;11.676;2023-06-26T10:20:28;5.20;;;4.90;;
15218;SDS011;15623;53.986;11.676;2023-06-26T10:41:14;6.50;;;5.90;;
15218;SDS011;15623;53.986;11.676;2023-06-26T10:47:38;5.72;;;5.20;;
15218;SDS011;15623;53.986;11.676;2023-06-26T11:18:32;5.65;;;5.25;;
15218;SDS011;15623;53.986;11.676;2023-06-26T11:23:40;5.75;;;5.45;;
15218;SDS011;15623;53.986;11.676;2023-06-26T13:47:49;10.77;;;8.10;;
15218;SDS011;15623;53.986;11.676;2023-06-26T13:56:08;9.98;;;7.68;;
15218;SDS011;15623;53.986;11.676;2023-06-26T13:58:51;8.63;;;7.00;;
15218;SDS011;15623;53.986;11.676;2023-06-26T19:31:15;5.32;;;2.28;;
15218;SDS011;15623;53.986;11.676;2023-06-26T19:34:07;3.35;;;2.13;;
15218;SDS011;15623;53.986;11.676;2023-06-26T19:36:48;5.88;;;2.10;;
15218;SDS011;15623;53.986;11.676;2023-06-26T19:45:09;4.50;;;1.90;;
15218;SDS011;15623;53.986;11.676;2023-06-26T19:47:47;2.85;;;1.85;;
15218;SDS011;15623;53.986;11.676;2023-06-26T20:44:30;11.07;;;2.63;;
15218;SDS011;15623;53.986;11.676;2023-06-26T20:47:04;4.15;;;1.90;;
15218;SDS011;15623;53.986;11.676;2023-06-26T20:49:35;4.85;;;2.00;;
15218;SDS011;15623;53.986;11.676;2023-06-26T20:52:06;4.65;;;1.77;;
15218;SDS011;15623;53.986;11.676;2023-06-26T20:54:34;7.00;;;2.22;;
15218;SDS011;15623;53.986;11.676;2023-06-26T20:57:02;5.32;;;2.17;;
15218;SDS011;15623;53.986;11.676;2023-06-26T20:59:44;5.75;;;2.10;;
15218;SDS011;15623;53.986;11.676;2023-06-26T21:02:12;6.05;;;1.92;;
15218;SDS011;15623;53.986;11.676;2023-06-26T21:04:52;5.63;;;2.15;;
15218;SDS011;15623;53.986;11.676;2023-06-26T21:07:26;5.78;;;2.00;;
15218;SDS011;15623;53.986;11.676;2023-06-26T21:10:00;5.00;;;1.80;;
15218;SDS011;15623;53.986;11.676;2023-06-26T21:12:32;4.07;;;1.90;;
15218;SDS011;15623;53.986;11.676;2023-06-26T21:15:02;5.70;;;2.20;;
15218;SDS011;15623;53.986;11.676;2023-06-26T21:17:32;5.15;;;2.03;;
15218;SDS011;15623;53.986;11.676;2023-06-26T21:20:01;8.95;;;2.55;;
15218;SDS011;15623;53.986;11.676;2023-06-26T21:25:09;4.50;;;2.15;;
15218;SDS011;15623;53.986;11.676;2023-06-26T21:30:43;6.05;;;2.08;;
15218;SDS011;15623;53.986;11.676;2023-06-26T21:36:22;9.98;;;2.50;;
15218;SDS011;15623;53.986;11.676;2023-06-26T21:38:59;6.70;;;2.40;;
15218;SDS011;15623;53.986;11.676;2023-06-26T21:41:28;6.25;;;2.22;;
15218;SDS011;15623;53.986;11.676;2023-06-26T21:43:59;6.00;;;2.55;;
15218;SDS011;15623;53.986;11.676;2023-06-26T21:46:34;5.45;;;2.40;;
15218;SDS011;15623;53.986;11.676;2023-06-26T21:49:17;9.98;;;2.88;;
15218;SDS011;15623;53.986;11.676;2023-06-26T21:51:59;9.35;;;2.67;;
15218;SDS011;15623;53.986;11.676;2023-06-26T21:54:37;7.60;;;2.60;;
15218;SDS011;15623;53.986;11.676;2023-06-26T21:59:58;9.57;;;2.80;;
15218;SDS011;15623;53.986;11.676;2023-06-26T22:02:41;6.18;;;2.70;;
15218;SDS011;15623;53.986;11.676;2023-06-26T22:05:15;4.05;;;2.30;;
15218;SDS011;15623;53.986;11.676;2023-06-26T22:07:43;6.95;;;2.33;;
15218;SDS011;15623;53.986;11.676;2023-06-26T22:10:19;8.93;;;2.72;;
15218;SDS011;15623;53.986;11.676;2023-06-26T22:31:54;5.75;;;2.53;;
15218;SDS011;15623;53.986;11.676;2023-06-26T22:40:07;7.70;;;2.72;;
15218;SDS011;15623;53.986;11.676;2023-06-26T22:42:53;4.47;;;2.30;;
15218;SDS011;15623;53.986;11.676;2023-06-26T22:45:28;13.05;;;2.90;;
15218;SDS011;15623;53.986;11.676;2023-06-26T22:47:57;5.10;;;2.50;;
15218;SDS011;15623;53.986;11.676;2023-06-26T22:53:31;8.90;;;3.22;;
15218;SDS011;15623;53.986;11.676;2023-06-26T22:58:59;8.85;;;2.67;;
15218;SDS011;15623;53.986;11.676;2023-06-26T23:01:30;6.95;;;2.50;;
15218;SDS011;15623;53.986;11.676;2023-06-26T23:04:18;6.30;;;2.60;;
15218;SDS011;15623;53.986;11.676;2023-06-26T23:07:03;5.70;;;2.70;;
